Trego, Wisconsin
Current Conditions -  °F | °C
As of 11:53 PM on Thursday 18 Dec 2014 (Local Time) from KHYR Reporting Station
Overcast Overcast  
Wind Chill: 16°   Ceiling: 800
Heat Index: 22°   Visibility: 10mi
Dew Point: 18°   Wind: 5mph
Humidity: 85%   Direction: 180°S
Pressure: 30.25"   Gusts: NA
Location:  45.9°N, 91.82°W
Report Text: KHYR 190553Z AUTO 18004KT 10SM OVC008 M06/M08 A3025 RMK AO2 SLP265 T10561078 11050 21056 410441072 52002
Loading
Personal Weather Stations






























Interactive Weather Map New forecast layout! Learn more

10-Day Weather Forecast

Advertisements
Track Severe Weather on mobile